Map

Track Data

SID SEASON NUMBER BASIN SUBBASIN NAME ISO_TIME NATURE LAT LON WMO_WIND WMO_PRES WMO_AGENCY TRACK_TYPE DIST2LAND LANDFALL IFLAG USA_AGENCY USA_ATCF_ID USA_LAT USA_LON USA_RECORD USA_STATUS USA_WIND USA_PRES USA_SSHS USA_R34_NE USA_R34_SE USA_R34_SW USA_R34_NW USA_R50_NE USA_R50_SE USA_R50_SW USA_R50_NW USA_R64_NE USA_R64_SE USA_R64_SW USA_R64_NW USA_POCI USA_ROCI USA_RMW USA_EYE TOKYO_LAT TOKYO_LON TOKYO_GRADE TOKYO_WIND TOKYO_PRES TOKYO_R50_DIR TOKYO_R50_LONG TOKYO_R50_SHORT TOKYO_R30_DIR TOKYO_R30_LONG TOKYO_R30_SHORT TOKYO_LAND CMA_LAT CMA_LON CMA_CAT CMA_WIND CMA_PRES HKO_LAT HKO_LON HKO_CAT HKO_WIND HKO_PRES NEWDELHI_LAT NEWDELHI_LON NEWDELHI_GRADE NEWDELHI_WIND NEWDELHI_PRES NEWDELHI_CI NEWDELHI_DP NEWDELHI_POCI REUNION_LAT REUNION_LON REUNION_TYPE REUNION_WIND REUNION_PRES REUNION_TNUM REUNION_CI REUNION_RMW REUNION_R34_NE REUNION_R34_SE REUNION_R34_SW REUNION_R34_NW REUNION_R50_NE REUNION_R50_SE REUNION_R50_SW REUNION_R50_NW REUNION_R64_NE REUNION_R64_SE REUNION_R64_SW REUNION_R64_NW BOM_LAT BOM_LON BOM_TYPE BOM_WIND BOM_PRES BOM_TNUM BOM_CI BOM_RMW BOM_R34_NE BOM_R34_SE BOM_R34_SW BOM_R34_NW BOM_R50_NE BOM_R50_SE BOM_R50_SW BOM_R50_NW BOM_R64_NE BOM_R64_SE BOM_R64_SW BOM_R64_NW BOM_ROCI BOM_POCI BOM_EYE BOM_POS_METHOD BOM_PRES_METHOD NADI_LAT NADI_LON NADI_CAT NADI_WIND NADI_PRES WELLINGTON_LAT WELLINGTON_LON WELLINGTON_WIND WELLINGTON_PRES DS824_LAT DS824_LON DS824_STAGE DS824_WIND DS824_PRES TD9636_LAT TD9636_LON TD9636_STAGE TD9636_WIND TD9636_PRES TD9635_LAT TD9635_LON TD9635_WIND TD9635_PRES TD9635_ROCI NEUMANN_LAT NEUMANN_LON NEUMANN_CLASS NEUMANN_WIND NEUMANN_PRES MLC_LAT MLC_LON MLC_CLASS MLC_WIND MLC_PRES USA_GUST BOM_GUST BOM_GUST_PER REUNION_GUST REUNION_GUST_PER USA_SEAHGT USA_SEARAD_NE USA_SEARAD_SE USA_SEARAD_SW USA_SEARAD_NW STORM_SPEED STORM_DIR
1968017S11072 1968 5 SI MM HENRIETTE 1968-01-17 06:00:00 TS -10.9600 72.4000 reunion main 1873 1856 O____O___OO_O_ jtwc_sh SH141968 -11.0000 72.0000 -1 -10.9000 73.0000 2 9.90000 -11.0000 72.0000 TC 25 -11.0000 72.0000 7 -10.9000 73.0000 TC 25 4 261
1968017S11072 1968 5 SI MM HENRIETTE 1968-01-17 09:00:00 TS -10.9935 72.1789 main 1856 1838 P____P___PP_P_ SH141968 -11.0375 71.7500 -1 -10.9025 72.8175 2 -11.0375 71.7500 TC 25 -11.0876 71.7596 7 -10.9025 72.8175 TC 25 5 261
1968017S11072 1968 5 SI MM HENRIETTE 1968-01-17 12:00:00 TS -11.0340 71.9430 reunion main 1829 1804 O____O___OP_O_ jtwc_sh SH141968 -11.1000 71.5000 -1 -10.9000 72.6000 99 9.90000 -11.1000 71.5000 TC 25 -11.1701 71.5153 7 -10.9000 72.6000 TC 25 5 259
1968017S11072 1968 5 SI MM HENRIETTE 1968-01-17 15:00:00 TS -11.0855 71.6817 main 1804 1778 P____P___PP_P_ SH141968 -11.2000 71.2500 -1 -10.8925 72.3225 99 -11.2000 71.2500 TC 25 -11.2425 71.2633 7 -10.8925 72.3225 TC 25 5 259
1968017S11072 1968 5 SI MM HENRIETTE 1968-01-17 18:00:00 TS -11.1400 71.4000 reunion main 1778 1745 O____O___OO_O_ jtwc_sh SH141968 -11.3000 71.0000 -1 -10.9000 72.0000 99 9.90000 -11.3000 71.0000 TC 25 -11.3000 71.0000 7 -10.9000 72.0000 TC 25 6 260
1968017S11072 1968 5 SI MM HENRIETTE 1968-01-17 21:00:00 TS -11.1885 71.0988 main 1745 1719 P____P___PP_P_ SH141968 -11.3500 70.7574 -1 -10.9501 71.6275 99 -11.3500 70.7574 TC 25 -11.3425 70.7238 7 -10.9501 71.6275 TC 27 6 260
1968017S11072 1968 5 SI MM HENRIETTE 1968-01-18 00:00:00 TS -11.2380 70.8084 reunion main 1719 1695 O____O___OP_O_ jtwc_sh SH141968 -11.4000 70.5000 -1 -11.0000 71.3000 99 9.90000 -11.4000 70.5000 TC 25 -11.3900 70.4422 7 -11.0000 71.3000 TC 30 5 260
1968017S11072 1968 5 SI MM HENRIETTE 1968-01-18 03:00:00 TS -11.2784 70.5788 main 1695 1670 P____P___PP_P_ SH141968 -11.4700 70.2000 -1 -10.9923 71.1649 99 -11.4700 70.2000 TC 30 -11.4675 70.1644 7 -10.9923 71.1649 TC 30 5 255
1968017S11072 1968 5 SI MM HENRIETTE 1968-01-18 06:00:00 TS -11.3600 70.3400 reunion main 1662 1629 O____O___OO_O_ jtwc_sh SH141968 -11.6000 69.9000 -1 -11.0000 71.0000 2 9.90000 -11.6000 69.9000 TC 35 -11.6000 69.9000 2 -11.0000 71.0000 TC 30 6 247
1968017S11072 1968 5 SI MM HENRIETTE 1968-01-18 09:00:00 TS -11.5166 70.0059 main 1629 1589 P____P___PP_P_ SH141968 -11.8200 69.6350 -1 -11.0627 70.5575 2 -11.8200 69.6350 TC 35 -11.8175 69.6446 2 -11.0627 70.5575 TC 30 8 240
1968017S11072 1968 5 SI MM HENRIETTE 1968-01-18 12:00:00 TS -11.7380 69.6810 reunion main 1589 1552 O____O___OP_O_ jtwc_sh SH141968 -12.1000 69.4000 -1 -11.2000 70.1000 99 9.90000 -12.1000 69.4000 TC 35 -12.0900 69.4053 2 -11.2000 70.1000 TC 30 7 227
1968017S11072 1968 5 SI MM HENRIETTE 1968-01-18 15:00:00 TS -12.0124 69.4656 main 1552 1514 P____P___PP_P_ SH141968 -12.4000 69.1775 -1 -11.4348 69.8924 99 -12.4000 69.1775 TC 35 -12.3925 69.1883 2 -11.4348 69.8924 TC 30 7 215
1968017S11072 1968 5 SI MM HENRIETTE 1968-01-18 18:00:00 TS -12.3000 69.2800 reunion main 1514 1483 O____O___OO_O_ jtwc_sh SH141968 -12.7000 69.0000 -1 -11.7000 69.7000 99 9.90000 -12.7000 69.0000 TC 35 -12.7000 69.0000 2 -11.7000 69.7000 TC 30 6 218
1968017S11072 1968 5 SI MM HENRIETTE 1968-01-18 21:00:00 TS -12.5235 69.0637 main 1483 1437 P____P___PP_P_ SH141968 -12.9500 68.8924 -1 -11.8775 69.3298 99 -12.9500 68.8924 TC 35 -12.9626 68.8741 2 -11.8775 69.3298 TC 32 6 223
1968017S11072 1968 5 SI MM HENRIETTE 1968-01-19 00:00:00 TS -12.7654 68.8343 reunion main 1437 1400 O____O___OP_O_ jtwc_sh SH141968 -13.2000 68.8000 -1 -12.1000 68.9000 99 9.90000 -13.2000 68.8000 TC 35 -13.2271 68.7717 2 -12.1000 68.9000 TC 35 7 219
1968017S11072 1968 5 SI MM HENRIETTE 1968-01-19 03:00:00 TS -13.0856 68.6036 main 1400 1363 P____P___PP_P_ SH141968 -13.4924 68.6799 -1 -12.4699 68.5000 99 -13.4924 68.6799 TC 35 -13.5032 68.6584 2 -12.4699 68.5000 TC 37 8 216
1968017S11072 1968 5 SI MM HENRIETTE 1968-01-19 06:00:00 TS -13.4400 68.3400 reunion main 1354 1302 O____O___OO_O_ jtwc_sh SH141968 -13.8000 68.5000 -1 -12.9000 68.1000 3 9.90000 -13.8000 68.5000 TC 35 -13.8000 68.5000 2 -12.9000 68.1000 TC 40 9 220
1968017S11072 1968 5 SI MM HENRIETTE 1968-01-19 09:00:00 TS -13.7713 68.0086 main 1302 1256 P____P___PP_P_ SH141968 -14.0850 68.2224 -1 -13.2851 67.6700 3 -14.0850 68.2224 TC 35 -14.1163 68.2583 2 -13.2851 67.6700 TC 42 10 223
1968017S11072 1968 5 SI MM HENRIETTE 1968-01-19 12:00:00 TS -14.1310 67.6735 reunion main 1256 1205 O____O___OP_O_ jtwc_sh SH141968 -14.4000 67.9000 -1 -13.7000 67.3000 99 9.90000 -14.4000 67.9000 TC 35 -14.4551 67.9673 2 -13.7000 67.3000 TC 45 10 216
1968017S11072 1968 5 SI MM HENRIETTE 1968-01-19 15:00:00 TS -14.5511 67.4143 main 1199 1157 P____P___PP_P_ SH141968 -14.7849 67.6074 -1 -14.1848 67.1070 99 -14.7849 67.6074 TC 35 -14.8163 67.6425 2 -14.1848 67.1070 TC 47 10 211
1968017S11072 1968 5 SI MM HENRIETTE 1968-01-19 18:00:00 TS -15.0000 67.1400 reunion main 1148 1097 O____O___OO_O_ jtwc_sh SH141968 -15.2000 67.3000 -1 -14.7000 66.9000 99 9.90000 -15.2000 67.3000 TC 35 -15.2000 67.3000 2 -14.7000 66.9000 TC 50 11 216
1968017S11072 1968 5 SI MM HENRIETTE 1968-01-19 21:00:00 TS -15.4318 66.7608 main 1097 1032 P____P___PP_P_ SH141968 -15.5925 66.9574 -1 -15.1852 66.4726 99 -15.5925 66.9574 TC 35 -15.6036 66.9443 2 -15.1852 66.4726 TC 55 12 220
1968017S11072 1968 5 SI MM HENRIETTE 1968-01-20 00:00:00 TS -15.8855 66.3556 reunion main 1032 969 O____O___OP_O_ jtwc_sh SH141968 -16.0000 66.6000 -1 -15.7000 66.0000 99 9.90000 -16.0000 66.6000 TC 35 -16.0278 66.5778 2 -15.7000 66.0000 TC 60 12 217
1968017S11072 1968 5 SI MM HENRIETTE 1968-01-20 03:00:00 TS -16.4106 65.9806 main 969 915 P____P___PP_P_ SH141968 -16.4500 66.2350 -1 -16.3450 65.6052 99 -16.4500 66.2350 TC 50 -16.4630 66.2224 2 -16.3450 65.6052 TC 62 12 213
1968017S11072 1968 5 SI MM HENRIETTE 1968-01-20 06:00:00 TS -16.9000 65.6600 reunion main 915 872 O____O___OO_O_ jtwc_sh SH141968 -16.9000 65.9000 -1 -16.9000 65.3000 4 9.90000 -16.9000 65.9000 TC 65 -16.9000 65.9000 4 -16.9000 65.3000 TC 65 10 213
1968017S11072 1968 5 SI MM HENRIETTE 1968-01-20 09:00:00 TS -17.2423 65.4183 main 872 848 P____P___PP_P_ SH141968 -17.2999 65.6273 -1 -17.1374 65.0972 4 -17.2999 65.6273 TC 65 -17.3368 65.6425 4 -17.1374 65.0972 TC 67 8 211
1968017S11072 1968 5 SI MM HENRIETTE 1968-01-20 12:00:00 TS -17.5544 65.2438 reunion main 834 812 O____O___OP_O_ jtwc_sh SH141968 -17.7000 65.4000 -1 -17.3000 65.0000 99 9.90000 -17.7000 65.4000 TC 65 -17.7720 65.4192 4 -17.3000 65.0000 TC 70 8 202
1968017S11072 1968 5 SI MM HENRIETTE 1968-01-20 15:00:00 TS -17.9502 65.1191 main 808 787 P____P___PP_P_ SH141968 -18.1574 65.1999 -1 -17.6200 64.9923 99 -18.1574 65.1999 TC 65 -18.1962 65.2113 4 -17.6200 64.9923 TC 72 8 196
1968017S11072 1968 5 SI MM HENRIETTE 1968-01-20 18:00:00 TS -18.3600 65.0000 reunion main 784 755 O____O___OO_O_ jtwc_sh SH141968 -18.6000 65.0000 -1 -18.0000 65.0000 99 9.90000 -18.6000 65.0000 TC 65 -18.6000 65.0000 4 -18.0000 65.0000 TC 75 8 199
1968017S11072 1968 5 SI MM HENRIETTE 1968-01-20 21:00:00 TS -18.7454 64.8265 main 755 724 P____P___PP_P_ SH141968 -18.9650 64.7574 -1 -18.4150 64.9226 99 -18.9650 64.7574 TC 65 -18.9673 64.7728 4 -18.4150 64.9226 TC 77 8 206
1968017S11072 1968 5 SI MM HENRIETTE 1968-01-21 00:00:00 TS -19.1029 64.6273 reunion main 724 697 O____O___OP_O_ jtwc_sh SH141968 -19.3000 64.5000 -1 -18.8000 64.8000 99 9.90000 -19.3000 64.5000 TC 65 -19.3146 64.5365 4 -18.8000 64.8000 TC 80 8 209
1968017S11072 1968 5 SI MM HENRIETTE 1968-01-21 03:00:00 TS -19.4109 64.4283 main 697 671 P____P___PP_P_ SH141968 -19.6499 64.2648 -1 -19.0500 64.6648 99 -19.6499 64.2648 TC 65 -19.6547 64.2820 4 -19.0500 64.6648 TC 82 7 213
1968017S11072 1968 5 SI MM HENRIETTE 1968-01-21 06:00:00 TS -19.7200 64.2000 reunion main 671 636 O____O___OO_O_ jtwc_sh SH141968 -20.0000 64.0000 -1 -19.3000 64.5000 4 9.90000 -20.0000 64.0000 TC 65 -20.0000 64.0000 4 -19.3000 64.5000 TC 85 8 215
1968017S11072 1968 5 SI MM HENRIETTE 1968-01-21 09:00:00 TS -20.0750 63.9261 main 636 604 P____P___PP_P_ SH141968 -20.3425 63.6649 -1 -19.6550 64.3149 4 -20.3425 63.6649 TC 65 -20.3801 63.6709 4 -19.6550 64.3149 TC 87 9 216
1968017S11072 1968 5 SI MM HENRIETTE 1968-01-21 12:00:00 TS -20.4730 63.6231 reunion main 604 576 O____O___OP_O_ jtwc_sh SH141968 -20.7000 63.3000 -1 -20.1000 64.1000 99 9.90000 -20.7000 63.3000 TC 65 -20.7652 63.3153 4 -20.1000 64.1000 TC 90 10 214
1968017S11072 1968 5 SI MM HENRIETTE 1968-01-21 15:00:00 TS -20.9345 63.3135 main 576 551 P____P___PP_P_ SH141968 -21.1150 62.9426 -1 -20.6500 63.8650 99 -21.1150 62.9426 TC 65 -21.1426 62.9521 4 -20.6500 63.8650 TC 90 11 213
1968017S11072 1968 5 SI MM HENRIETTE 1968-01-21 18:00:00 TS -21.3800 63.0000 reunion main 554 532 O____O___OO_O_ jtwc_sh SH141968 -21.5000 62.6000 -1 -21.2000 63.6000 99 9.90000 -21.5000 62.6000 TC 65 -21.5000 62.6000 4 -21.2000 63.6000 TC 90 10 217
1968017S11072 1968 5 SI MM HENRIETTE 1968-01-21 21:00:00 TS -21.6958 62.7022 main 532 509 P____P___PP_P_ SH141968 -21.7574 62.2921 -1 -21.5998 63.3294 99 -21.7574 62.2921 TC 50 -21.7646 62.2681 4 -21.5998 63.3294 TC 90 8 222
1968017S11072 1968 5 SI MM HENRIETTE 1968-01-22 00:00:00 TS -22.0035 62.3907 reunion main 513 492 O____O___OP_O_ jtwc_sh SH141968 -22.0000 62.0000 -1 -22.0000 63.0000 99 9.90000 -22.0000 62.0000 TC 35 -22.0175 61.9533 4 -22.0000 63.0000 TC 90 9 222
1968017S11072 1968 5 SI MM HENRIETTE 1968-01-22 03:00:00 TS -22.4044 62.0266 main 492 484 P____P___PP_P_ SH141968 -22.2975 61.6849 -1 -22.5577 62.5506 99 -22.2975 61.6849 TC 35 -22.3116 61.6619 4 -22.5577 62.5506 TC 87 11 218
1968017S11072 1968 5 SI MM HENRIETTE 1968-01-22 06:00:00 TS -22.8600 61.6800 reunion main 492 483 O____O___OO_O_ jtwc_sh SH141968 -22.7000 61.4000 -1 -23.1000 62.1000 4 9.90000 -22.7000 61.4000 TC 35 -22.7000 61.4000 2 -23.1000 62.1000 TC 85 11 211
1968017S11072 1968 5 SI MM HENRIETTE 1968-01-22 09:00:00 TS -23.3391 61.4232 main 493 493 P____P___PP_P_ SH141968 -23.2474 61.1848 -1 -23.4797 61.7918 4 -23.2474 61.1848 TC 35 -23.2411 61.1631 2 -23.4797 61.7918 TC 82 11 204
1968017S11072 1968 5 SI MM HENRIETTE 1968-01-22 12:00:00 TS -23.8560 61.1910 reunion main 523 516 O____O___OP_O_ jtwc_sh SH141968 -23.9000 61.0000 -1 -23.8000 61.5000 99 9.90000 -23.9000 61.0000 TC 35 -23.8799 60.9549 2 -23.8000 61.5000 TC 80 12 203
1968017S11072 1968 5 SI MM HENRIETTE 1968-01-22 15:00:00 TS -24.4037 60.9197 main 545 545 P____P___PP_P_ SH141968 -24.5775 60.7924 -1 -24.1424 61.1223 99 -24.5775 60.7924 TC 35 -24.5788 60.7692 2 -24.1424 61.1223 TC 77 12 204
1968017S11072 1968 5 SI MM HENRIETTE 1968-01-22 18:00:00 TS -24.9800 60.6400 reunion main 584 584 O____O___OO_O_ jtwc_sh SH141968 -25.3000 60.6000 -1 -24.5000 60.7000 99 9.90000 -25.3000 60.6000 TC 35 -25.3000 60.6000 2 -24.5000 60.7000 TC 75 13 202
1968017S11072 1968 5 SI MM HENRIETTE 1968-01-22 21:00:00 TS -25.6013 60.3764 main 633 633 P____P___PP_P_ SH141968 -26.0575 60.4423 -1 -24.8924 60.2648 99 -26.0575 60.4423 TC 35 -26.1069 60.4680 2 -24.8924 60.2648 TC 72 13 201
1968017S11072 1968 5 SI MM HENRIETTE 1968-01-23 00:00:00 TS -26.2218 60.1091 reunion main 682 682 O____O___OP_O_ jtwc_sh SH141968 -26.8000 60.3000 -1 -25.3000 59.8000 99 9.90000 -26.8000 60.3000 TC 35 -26.9091 60.3452 2 -25.3000 59.8000 TC 70 13 202
1968017S11072 1968 5 SI MM HENRIETTE 1968-01-23 03:00:00 TS -26.8414 59.8172 main 735 735 P____P___PP_P_ SH141968 -27.5474 60.1725 -1 -25.7527 59.2706 99 -27.5474 60.1725 TC 35 -27.6068 60.1999 2 -25.7527 59.2706 TC 67 12 206
1968017S11072 1968 5 SI MM HENRIETTE 1968-01-23 06:00:00 TS -27.3000 59.5200 reunion main 767 767 O____O___OO_O_ jtwc_sh SH141968 -28.1000 60.0000 -1 -26.1000 58.8000 4 9.90000 -28.1000 60.0000 TC 35 -28.1000 60.0000 2 -26.1000 58.8000 TC 65 8 220
1968017S11072 1968 5 SI MM HENRIETTE 1968-01-23 09:00:00 TS -27.4614 59.2396 main 772 763 P____P___PP_P_ SH141968 -28.3274 59.7375 -1 -26.1872 58.5043 4 -28.3274 59.7375 TC 35 -28.2778 59.7142 2 -26.1872 58.5043 TC 62 5 253
1968017S11072 1968 5 SI MM HENRIETTE 1968-01-23 12:00:00 TS -27.4495 58.9546 reunion main 753 740 O____O___OP_O_ jtwc_sh SH141968 -28.3000 59.4000 -1 -26.2000 58.3000 99 9.90000 -28.3000 59.4000 TC 35 -28.2475 59.3730 2 -26.2000 58.3000 TC 60 5 275
1968017S11072 1968 5 SI MM HENRIETTE 1968-01-23 15:00:00 TS -27.4107 58.6419 main 735 713 P____P___PP_P_ SH141968 -28.1375 59.0146 -1 -26.3424 58.0925 99 -28.1375 59.0146 TC 35 -28.0934 58.9955 2 -26.3424 58.0925 TC 60 6 281
1968017S11072 1968 5 SI MM HENRIETTE 1968-01-23 18:00:00 TS -27.3400 58.3200 reunion main 713 702 O____O___OO_O_ jtwc_sh SH141968 -27.9000 58.6000 -1 -26.5000 57.9000 99 9.90000 -27.9000 58.6000 TC 35 -27.9000 58.6000 2 -26.5000 57.9000 TC 60 6 282
1968017S11072 1968 5 SI MM HENRIETTE 1968-01-23 21:00:00 TS -27.2929 58.0077 main 702 692 P____P___PP_P_ SH141968 -27.7349 58.2001 -1 -26.6075 57.6999 99 -27.7349 58.2001 TC 30 -27.7796 58.2382 2 -26.6075 57.6999 TC 57 6 279
1968017S11072 1968 5 SI MM HENRIETTE 1968-01-24 00:00:00 TS -27.2483 57.6918 reunion main 682 673 O____O___OP_O_ jtwc_sh SH141968 -27.6000 57.8000 -1 -26.7000 57.5000 99 9.90000 -27.6000 57.8000 TC 25 -27.6414 57.8592 2 -26.7000 57.5000 TC 55 6 278
1968017S11072 1968 5 SI MM HENRIETTE 1968-01-24 03:00:00 TS -27.2183 57.3912 main 673 665 P____P___PP_P_ SH141968 -27.4847 57.4151 -1 -26.8072 57.3374 99 -27.4847 57.4151 TC 25 -27.5075 57.4507 2 -26.8072 57.3374 TC 52 6 275
1968017S11072 1968 5 SI MM HENRIETTE 1968-01-24 06:00:00 TS -27.2000 57.0400 reunion main 663 655 O____O___OO_O_ jtwc_sh SH141968 -27.4000 57.0000 -1 -26.9000 57.1000 3 9.90000 -27.4000 57.0000 TC 25 -27.4000 57.0000 1 -26.9000 57.1000 TC 50 7 273
1968017S11072 1968 5 SI MM HENRIETTE 1968-01-24 09:00:00 TS -27.1872 56.5927 main 655 650 P____P___PP_P_ SH141968 -27.3348 56.5300 -1 -26.9726 56.6951 3 -27.3348 56.5300 TC 25 -27.3214 56.5130 1 -26.9726 56.6951 TC 50 9 272
1968017S11072 1968 5 SI MM HENRIETTE 1968-01-24 12:00:00 TS -27.1748 56.0763 reunion main 650 648 O____O___OP_O_ jtwc_sh SH141968 -27.3000 56.0000 -1 -27.0000 56.2000 99 9.90000 -27.3000 56.0000 TC 25 -27.2742 55.9816 1 -27.0000 56.2000 TC 50 9 272
1968017S11072 1968 5 SI MM HENRIETTE 1968-01-24 15:00:00 TS -27.1588 55.5369 main 648 638 P____P___PP_P_ SH141968 -27.2997 55.4302 -1 -26.9649 55.7073 99 -27.2997 55.4302 TC 25 -27.2648 55.4095 1 -26.9649 55.7073 TC 47 10 272
1968017S11072 1968 5 SI MM HENRIETTE 1968-01-24 18:00:00 TS -27.1400 54.9600 reunion main 639 639 O____O___OO_O_ jtwc_sh SH141968 -27.3000 54.8000 -1 -26.9000 55.2000 99 9.90000 -27.3000 54.8000 TC 25 -27.3000 54.8000 1 -26.9000 55.2000 TC 45 11 274
1968017S11072 1968 5 SI MM HENRIETTE 1968-01-24 21:00:00 TS -27.0788 54.3335 main 650 650 P____P___PP_P_ SH141968 -27.2050 54.1065 -1 -26.8647 54.7078 99 -27.2050 54.1065 TC 25 -27.2546 54.0390 1 -26.8647 54.7078 TC 42 11 274
1968017S11072 1968 5 SI MM HENRIETTE 1968-01-25 00:00:00 TS -27.0538 53.6927 reunion main 665 643 O____O___OP_O_ jtwc_sh SH141968 -27.2000 53.4000 -1 -26.8000 54.2000 99 9.90000 -27.2000 53.4000 TC 25 -27.2689 53.2633 1 -26.8000 54.2000 TC 40 12 270
1968017S11072 1968 5 SI MM HENRIETTE 1968-01-25 03:00:00 TS -27.0818 53.0372 main 633 592 P____P___PP_P_ SH141968 -27.3654 52.6680 -1 -26.6276 53.6344 99 -27.3654 52.6680 TC 25 -27.4232 52.5812 1 -26.6276 53.6344 TC 37 11 258
1968017S11072 1968 5 SI MM HENRIETTE 1968-01-25 06:00:00 MX -27.2800 52.5000 reunion main 596 583 O____O___OO_O_ jtwc_sh SH141968 -27.8000 52.1000 -1 -26.5000 53.1000 5 9.90000 -27.8000 52.1000 TC 25 -27.8000 52.1000 1 -26.5000 53.1000 EX 35 10 229
1968017S11072 1968 5 SI MM HENRIETTE 1968-01-25 09:00:00 MX -27.7625 52.1611 main 596 587 P____P___PP_P_ SH141968 -28.5445 51.8085 -1 -26.6074 52.6483 5 -28.5445 51.8085 TC 25 -28.5087 51.8920 1 -26.6074 52.6483 EX 32 12 201
1968017S11072 1968 5 SI MM HENRIETTE 1968-01-25 12:00:00 MX -28.3674 52.0199 reunion main 616 616 O____O___OP_O_ jtwc_sh SH141968 -29.5000 51.8000 -1 -26.7000 52.3000 99 9.90000 -29.5000 51.8000 TC 25 -29.4370 51.8997 1 -26.7000 52.3000 EX 30 11 186
1968017S11072 1968 5 SI MM HENRIETTE 1968-01-25 15:00:00 MX -28.8404 52.0359 main 644 644 P____P___PP_P_ SH141968 -30.5000 52.0163 -1 -26.3649 52.0321 99 -30.5000 52.0163 TC 25 -30.4720 52.0827 1 -26.3649 52.0321 EX 30 11 171
1968017S11072 1968 5 SI MM HENRIETTE 1968-01-25 18:00:00 MX -29.4200 52.2000 reunion main 702 702 O____O___OO_O_ jtwc_sh SH141968 -31.5000 52.4000 -1 -26.3000 51.9000 99 9.90000 -31.5000 52.4000 TC 25 -31.5000 52.4000 1 -26.3000 51.9000 EX 30 15 167
1968017S11072 1968 5 SI MM HENRIETTE 1968-01-25 21:00:00 MX -30.3132 52.4328 main 786 786 P____P___PP_P_ SH141968 -32.3796 52.7563 -1 -27.1875 51.9194 99 -32.3796 52.7563 TC 25 -32.4317 52.8127 1 -27.1875 51.9194 EX 30 15 165
1968017S11072 1968 5 SI MM HENRIETTE 1968-01-26 00:00:00 MX -30.9070 52.6524 reunion main 855 855 O____O___OP_O_ jtwc_sh SH141968 -33.2000 53.2000 -1 -28.3000 52.0000 99 9.90000 -33.2000 53.2000 TC 25 -33.2728 53.2970 1 -28.3000 52.0000 EX 30 8 159
1968017S11072 1968 5 SI MM HENRIETTE 1968-01-26 03:00:00 MX -31.0955 52.7823 main 878 855 P____P___PP_P_ SH141968 -34.0034 53.7621 -1 -28.9024 52.0298 99 -34.0034 53.7621 TC 25 -34.0525 53.8330 1 -28.9024 52.0298 EX 30 0 30
1968017S11072 1968 5 SI MM HENRIETTE 1968-01-26 06:00:00 MX -30.8727 52.6545 reunion main 855 737 O____O___OO_O_ jtwc_sh SH141968 -34.8000 54.4000 -1 -29.4000 52.0000 6 9.90000 -34.8000 54.4000 TC 25 -34.8000 54.4000 1 -29.4000 52.0000 EX 30 13 323
1968017S11072 1968 5 SI MM HENRIETTE 1968-01-26 09:00:00 MX -30.0949 51.9027 main 737 731 _____P______P_ SH141968 -1 -30.0949 51.9027 6 TC 1 -30.0949 51.9027 EX 30 8 282
1968017S11072 1968 5 SI MM HENRIETTE 1968-01-26 12:00:00 ET -30.7000 51.7000 reunion main 776 776 _____O______O_ -1 -30.7000 51.7000 99 9.90000 1 -30.7000 51.7000 EX 30 10 208
1968017S11072 1968 5 SI MM HENRIETTE 1968-01-26 15:00:00 ET -30.9501 51.3790 main 787 776 _____P______P_ -1 -30.9501 51.3790 99 1 -30.9501 51.3790 EX 30 8 230
1968017S11072 1968 5 SI MM HENRIETTE 1968-01-26 18:00:00 ET -31.2000 51.0000 reunion main 785 785 _____O______O_ -1 -31.2000 51.0000 99 9.90000 -31.2000 51.0000 EX 30 11 218
1968017S11072 1968 5 SI MM HENRIETTE 1968-01-26 21:00:00 ET -31.7751 50.6207 main 824 824 _____P______P_ -1 -31.7751 50.6207 99 -31.7751 50.6207 EX 30 14 205
1968017S11072 1968 5 SI MM HENRIETTE 1968-01-27 00:00:00 ET -32.5000 50.3000 reunion main 882 882 _____O______O_ -1 -32.5000 50.3000 99 9.90000 -32.5000 50.3000 EX 30 16 196
1968017S11072 1968 5 SI MM HENRIETTE 1968-01-27 03:00:00 ET -33.2949 50.0973 main 958 958 _____P______P_ -1 -33.2949 50.0973 99 -33.2949 50.0973 EX 27 15 189
1968017S11072 1968 5 SI MM HENRIETTE 1968-01-27 06:00:00 ET -34.0000 50.0000 reunion main 1029 1029 _____O______O_ -1 -34.0000 50.0000 99 9.90000 -34.0000 50.0000 EX 25 11 185
1968017S11072 1968 5 SI MM HENRIETTE 1968-01-27 09:00:00 ET -34.4249 49.9770 main 1071 1071 _____P______P_ -1 -34.4249 49.9770 99 -34.4249 49.9770 EX 25 7 0
1968017S11072 1968 5 SI MM HENRIETTE 1968-01-27 12:00:00 MX -34.7000 50.0000 reunion main 1103 1103 _____O______O_ -1 -34.7000 50.0000 6 9.90000 -34.7000 50.0000 EX 25 5 0
1968017S11072 1968 5 SI MM HENRIETTE 1968-01-27 15:00:00 MX -34.9275 50.0000 main 1123 1123 _____P______P_ -1 -34.9275 50.0000 6 -34.9275 50.0000 EX 22 5 178
1968017S11072 1968 5 SI MM HENRIETTE 1968-01-27 18:00:00 ET -35.2000 50.0000 reunion main 1154 1154 _____O______O_ -1 -35.2000 50.0000 99 9.90000 -35.2000 50.0000 EX 20 8 0
1968017S11072 1968 5 SI MM HENRIETTE 1968-01-27 21:00:00 ET -35.6775 50.0000 main 1205 1205 _____P______P_ -1 -35.6775 50.0000 99 -35.6775 50.0000 EX 20 10 179
1968017S11072 1968 5 SI MM HENRIETTE 1968-01-28 00:00:00 ET -36.2000 50.0000 reunion main 1257 1257 _____O______O_ -1 -36.2000 50.0000 99 9.90000 -36.2000 50.0000 EX 20 10 178
1968017S11072 1968 5 SI MM HENRIETTE 1968-01-28 03:00:00 ET -36.6325 50.0000 main 1299 1299 _____P______P_ -1 -36.6325 50.0000 99 -36.6325 50.0000 EX 20 8 179
1968017S11072 1968 5 SI MM HENRIETTE 1968-01-28 06:00:00 MX -37.0000 50.0000 reunion main 1340 _____O______O_ -1 -37.0000 50.0000 6 9.90000 -37.0000 50.0000 EX 20 7 0

About IBTrACS Database

This database is a web-friendly format of International Best Track Archive for Climate Stewardship (IBTrACS), a global best track data archive curated by NOAA dating back to 1842.

Updated: 2021-11-26